DURO2: Washita River Durwood, OK

Data processed at Fri Mar 16 2018 23:35


All information presented herein is the property of the government of the United States of America and may be revised or deleted at any time without prior notice.
Dissemination of this information without the expressed written consent of the Public Affairs Office, Tulsa District U.S. Army Corps of Engineers is strictly prohibited.
These data are gathered electronically and, as presented, have not undergone any form of quality control. These data are not guaranteed to be valid or correct.
Go to home page.
Go to station list.

Upstream stations:

Downstream station:
Previous Day
Next Day
Current Day
    
SHEF ID:       DURO2     Washita River near Dickson, OK
STATION TYPE:  

               PRECIP PRECIP(A)     STAGE  RIV-FLOW  BAT-LOAD
                   in        in        ft       cfs      volt
              Ccp-Rev   Ccp-Rev   Ccp-Rev   Ccp-Rev   Ccp-Rev
(US/Central)
03/14 00:00      0.00      ----      7.46      1020     12.41
03/14 01:00      0.00      ----      7.44      1006     12.33
03/14 02:00      0.00      ----      7.47      1026     12.33
03/14 03:00      0.00      ----      7.45      1013     12.25
03/14 04:00      0.00      ----      7.42       993     12.25
03/14 05:00      0.00      ----      7.46      1020     12.17
03/14 06:00      0.00      ----      7.43      1000     12.17
03/14 07:00      0.00      ----      7.44      1006     12.17
03/14 08:00      0.00      ----      7.43      1000     12.17
03/14 09:00      0.00      ----      7.45      1013     13.29
03/14 10:00      0.00      ----      7.48      1033     13.05
03/14 11:00      0.00      ----      7.48      1033     12.89
03/14 12:00      0.00      ----      7.46      1020     12.81
03/14 13:00      0.00      ----      7.45      1013     12.73
03/14 14:00      0.00      ----      7.44      1006     12.73
03/14 15:00      0.00      ----      7.41       986     12.73
03/14 16:00      0.00      ----      7.39       973     12.65
03/14 17:00      0.00      ----      7.41       986     12.65
03/14 18:00      0.00      ----      7.38       966     12.65
03/14 19:00      0.00      ----      7.38       966     12.57
03/14 20:00      0.00      ----      7.36       953     12.49
03/14 21:00      0.00      ----      7.39       973     12.49
03/14 22:00      0.00      ----      7.37       960     12.41
03/14 23:00      0.00      ----      7.40       980     12.41